createdAt,value
2022-11-19T00:00:49.962Z,0.00
2022-11-19T00:01:50.001Z,0.00
2022-11-19T00:02:49.952Z,0.00
2022-11-19T00:03:52.692Z,0.00
2022-11-19T00:04:49.922Z,0.00
2022-11-19T00:05:49.905Z,0.00
2022-11-19T00:06:49.893Z,0.00
2022-11-19T00:07:49.882Z,0.00
2022-11-19T00:08:49.896Z,0.00
2022-11-19T00:09:49.862Z,0.00
2022-11-19T00:10:49.854Z,0.00
2022-11-19T00:11:49.843Z,0.00
2022-11-19T00:12:49.836Z,0.00
2022-11-19T00:13:49.834Z,0.00
2022-11-19T00:14:49.812Z,0.00
2022-11-19T00:15:49.794Z,0.00
2022-11-19T00:16:49.796Z,0.00
2022-11-19T00:17:49.776Z,0.00
2022-11-19T00:18:49.775Z,0.00
2022-11-19T00:19:49.758Z,0.00
2022-11-19T00:20:49.745Z,0.00
2022-11-19T00:21:49.725Z,0.00
2022-11-19T00:22:49.727Z,0.00
2022-11-19T00:23:49.736Z,0.00
2022-11-19T00:24:49.704Z,0.00
2022-11-19T00:25:49.689Z,0.00
2022-11-19T00:26:49.695Z,0.00
2022-11-19T00:27:49.678Z,0.00
2022-11-19T00:28:49.676Z,0.00
2022-11-19T00:29:49.657Z,0.00
2022-11-19T00:30:49.641Z,0.00
2022-11-19T00:31:49.643Z,0.00
2022-11-19T00:32:49.618Z,0.00
2022-11-19T00:33:49.610Z,0.00
2022-11-19T00:34:49.595Z,0.00
2022-11-19T00:35:49.579Z,0.00
2022-11-19T00:36:49.567Z,0.00
2022-11-19T00:37:49.557Z,0.00
2022-11-19T00:38:49.576Z,0.00
2022-11-19T00:39:49.537Z,0.00
2022-11-19T00:40:49.528Z,0.00
2022-11-19T00:41:49.517Z,0.00
2022-11-19T00:42:49.508Z,0.00
2022-11-19T00:43:49.818Z,0.00
2022-11-19T00:44:49.509Z,0.00
2022-11-19T00:45:49.472Z,0.00
2022-11-19T00:46:49.459Z,0.00
2022-11-19T00:47:49.462Z,0.00
2022-11-19T00:48:49.451Z,0.00
2022-11-19T00:49:49.430Z,0.00
2022-11-19T00:50:49.413Z,0.00
2022-11-19T00:51:49.410Z,0.00
2022-11-19T00:52:49.400Z,0.00
2022-11-19T00:53:49.414Z,0.00
2022-11-19T00:54:49.370Z,0.00
2022-11-19T00:55:49.441Z,0.00
2022-11-19T00:56:49.353Z,0.00
2022-11-19T00:57:49.350Z,0.00
2022-11-19T00:58:49.350Z,0.00
2022-11-19T00:59:49.333Z,0.00
2022-11-19T01:00:49.340Z,0.00
2022-11-19T01:01:49.341Z,0.00
2022-11-19T01:02:49.282Z,0.00
2022-11-19T01:03:49.283Z,0.00
2022-11-19T01:04:49.264Z,0.00
2022-11-19T01:05:49.274Z,0.00
2022-11-19T01:06:49.272Z,0.00
2022-11-19T01:07:49.264Z,0.00
2022-11-19T01:08:49.237Z,0.00
2022-11-19T01:09:49.213Z,0.00
2022-11-19T01:10:49.205Z,0.00
2022-11-19T01:11:49.196Z,0.00
2022-11-19T01:12:49.174Z,0.00
2022-11-19T01:13:49.194Z,0.00
2022-11-19T01:14:49.154Z,0.00
2022-11-19T01:15:49.153Z,0.00
2022-11-19T01:16:49.135Z,0.00
2022-11-19T01:17:49.125Z,0.00
2022-11-19T01:18:49.116Z,0.00
2022-11-19T01:19:49.125Z,0.00
2022-11-19T01:20:49.086Z,0.00
2022-11-19T01:21:49.076Z,0.00
2022-11-19T01:22:49.067Z,0.00
2022-11-19T01:23:49.087Z,0.00
2022-11-19T01:24:49.066Z,0.00
2022-11-19T01:25:49.045Z,0.00
2022-11-19T01:26:49.025Z,0.00
2022-11-19T01:27:49.015Z,0.00
2022-11-19T01:28:49.026Z,0.00
2022-11-19T01:29:49.024Z,0.00
2022-11-19T01:30:48.978Z,0.00
2022-11-19T01:31:48.976Z,0.00
2022-11-19T01:32:48.964Z,0.00
2022-11-19T01:33:48.958Z,0.00
2022-11-19T01:34:48.958Z,0.00
2022-11-19T01:35:48.939Z,0.00
2022-11-19T01:36:48.922Z,0.00
2022-11-19T01:37:48.909Z,0.00
2022-11-19T01:38:48.922Z,0.00
2022-11-19T01:39:48.877Z,0.00
2022-11-19T01:40:48.885Z,0.00
2022-11-19T01:41:48.869Z,0.00
2022-11-19T01:42:48.847Z,0.00
2022-11-19T01:43:48.844Z,0.00
2022-11-19T01:44:48.847Z,0.00
2022-11-19T01:45:48.823Z,0.00
2022-11-19T01:46:48.799Z,0.00
2022-11-19T01:47:48.808Z,0.00
2022-11-19T01:48:48.783Z,0.00
2022-11-19T01:49:48.790Z,0.00
2022-11-19T01:50:48.763Z,0.00
2022-11-19T01:51:48.761Z,0.00
2022-11-19T01:52:48.741Z,0.00
2022-11-19T01:53:48.740Z,0.00
2022-11-19T01:54:48.731Z,0.00
2022-11-19T01:55:48.710Z,0.00
2022-11-19T01:56:48.713Z,0.00
2022-11-19T01:57:48.689Z,0.00
2022-11-19T01:58:48.680Z,0.00
2022-11-19T01:59:48.684Z,0.00
2022-11-19T02:00:48.691Z,0.00
2022-11-19T02:01:48.694Z,0.00
2022-11-19T02:02:48.663Z,0.00
2022-11-19T02:03:48.662Z,0.00
2022-11-19T02:04:48.622Z,0.00
2022-11-19T02:05:48.612Z,0.00
2022-11-19T02:06:48.589Z,0.00
2022-11-19T02:07:48.592Z,0.00
2022-11-19T02:08:48.564Z,0.00
2022-11-19T02:09:48.563Z,0.00
2022-11-19T02:10:48.551Z,0.00
2022-11-19T02:11:48.536Z,0.00
2022-11-19T02:12:48.525Z,0.00
2022-11-19T02:13:48.513Z,0.00
2022-11-19T02:14:52.011Z,0.00
2022-11-19T02:15:49.483Z,0.00
2022-11-19T02:16:48.484Z,0.00
2022-11-19T02:17:48.473Z,0.00
2022-11-19T02:18:48.467Z,0.00
2022-11-19T02:19:48.455Z,0.00
2022-11-19T02:20:48.444Z,0.00
2022-11-19T02:21:48.425Z,0.00
2022-11-19T02:22:48.425Z,0.00
2022-11-19T02:23:48.416Z,0.00
2022-11-19T02:24:48.445Z,0.00
2022-11-19T02:25:48.386Z,0.00
2022-11-19T02:26:48.378Z,0.00
2022-11-19T02:27:48.465Z,0.00
2022-11-19T02:28:48.347Z,0.00
2022-11-19T02:29:48.367Z,0.00
2022-11-19T02:30:48.327Z,0.00
2022-11-19T02:31:48.316Z,0.00
2022-11-19T02:32:48.307Z,0.00
2022-11-19T02:33:48.295Z,0.00
2022-11-19T02:34:48.315Z,0.00
2022-11-19T02:35:48.320Z,0.00
2022-11-19T02:36:48.264Z,0.00
2022-11-19T02:37:48.400Z,0.00
2022-11-19T02:38:48.270Z,0.00
2022-11-19T02:39:48.248Z,0.00
2022-11-19T02:40:48.237Z,0.00
2022-11-19T02:41:48.207Z,0.00
2022-11-19T02:42:48.204Z,0.00
2022-11-19T02:43:48.248Z,0.00
2022-11-19T02:44:48.192Z,0.00
2022-11-19T02:45:48.182Z,0.00
2022-11-19T02:46:48.177Z,0.00
2022-11-19T02:47:48.141Z,0.00
2022-11-19T02:48:48.129Z,0.00
2022-11-19T02:49:48.200Z,0.00
2022-11-19T02:50:48.117Z,0.00
2022-11-19T02:51:48.099Z,0.00
2022-11-19T02:52:48.089Z,0.00
2022-11-19T02:53:48.110Z,0.00
2022-11-19T02:54:48.080Z,0.00
2022-11-19T02:55:48.059Z,0.00
2022-11-19T02:56:48.050Z,0.00
2022-11-19T02:57:48.031Z,0.00
2022-11-19T02:58:48.036Z,0.00
2022-11-19T02:59:48.020Z,0.00
2022-11-19T03:00:48.013Z,0.00
2022-11-19T03:01:48.053Z,0.00
2022-11-19T03:02:47.992Z,0.00
2022-11-19T03:03:47.962Z,0.00
2022-11-19T03:04:47.972Z,0.00
2022-11-19T03:05:47.942Z,0.00
2022-11-19T03:06:47.943Z,0.00
2022-11-19T03:07:47.923Z,0.00
2022-11-19T03:08:48.032Z,0.00
2022-11-19T03:09:47.971Z,0.00
2022-11-19T03:10:47.893Z,0.00
2022-11-19T03:11:47.899Z,0.00
2022-11-19T03:12:47.871Z,0.00
2022-11-19T03:13:47.863Z,0.00
2022-11-19T03:14:47.863Z,0.00
2022-11-19T03:15:47.835Z,0.00
2022-11-19T03:16:47.831Z,0.00
2022-11-19T03:17:47.923Z,0.00
2022-11-19T03:18:47.823Z,0.00
2022-11-19T03:19:47.831Z,0.00
2022-11-19T03:20:47.785Z,0.00
2022-11-19T03:21:47.773Z,0.00
2022-11-19T03:22:47.764Z,0.00
2022-11-19T03:23:47.804Z,0.00
2022-11-19T03:24:47.763Z,0.00
2022-11-19T03:25:47.744Z,0.00
2022-11-19T03:26:47.723Z,0.00
2022-11-19T03:27:47.723Z,0.00
2022-11-19T03:28:47.714Z,0.00
2022-11-19T03:29:48.008Z,0.00
2022-11-19T03:30:47.677Z,0.00
2022-11-19T03:31:47.695Z,0.00
2022-11-19T03:32:47.664Z,0.00
2022-11-19T03:33:47.645Z,0.00
2022-11-19T03:34:47.665Z,0.00
2022-11-19T03:35:47.666Z,0.00
2022-11-19T03:36:47.605Z,0.00
2022-11-19T03:37:47.707Z,0.00
2022-11-19T03:38:47.602Z,0.00
2022-11-19T03:39:47.598Z,0.00
2022-11-19T03:40:47.566Z,0.00
2022-11-19T03:41:47.685Z,0.00
2022-11-19T03:42:47.548Z,0.00
2022-11-19T03:43:47.529Z,0.00
2022-11-19T03:44:47.599Z,0.00
2022-11-19T03:45:47.508Z,0.00
2022-11-19T03:46:47.538Z,0.00
2022-11-19T03:47:47.578Z,0.00
2022-11-19T03:48:47.481Z,0.00
2022-11-19T03:49:47.549Z,0.00
2022-11-19T03:50:47.466Z,0.00
2022-11-19T03:51:47.439Z,0.00
2022-11-19T03:52:47.441Z,0.00
2022-11-19T03:53:47.429Z,0.00
2022-11-19T03:54:47.422Z,0.00
2022-11-19T03:55:47.532Z,0.00
2022-11-19T03:56:47.420Z,0.00
2022-11-19T03:57:47.553Z,0.00
2022-11-19T03:58:47.375Z,0.00
2022-11-19T03:59:47.379Z,0.00
2022-11-19T04:00:47.357Z,0.00
2022-11-19T04:01:47.377Z,0.00
2022-11-19T04:02:47.329Z,0.00
2022-11-19T04:03:47.394Z,0.00
2022-11-19T04:04:47.310Z,0.00
2022-11-19T04:05:47.348Z,0.00
2022-11-19T04:06:47.354Z,0.00
2022-11-19T04:07:47.269Z,0.00
2022-11-19T04:08:47.273Z,0.00
2022-11-19T04:09:47.261Z,0.00
2022-11-19T04:10:47.241Z,0.00
2022-11-19T04:12:22.676Z,0.00
2022-11-19T04:13:22.656Z,0.00
2022-11-19T04:14:22.627Z,0.00
2022-11-19T04:15:22.616Z,0.00
2022-11-19T04:16:22.598Z,0.00
2022-11-19T04:17:22.585Z,0.00
2022-11-19T04:18:22.700Z,0.00
2022-11-19T04:19:22.557Z,0.00
2022-11-19T04:20:22.578Z,0.00
2022-11-19T04:21:22.541Z,0.00
2022-11-19T04:22:22.549Z,0.00
2022-11-19T04:23:22.516Z,0.00
2022-11-19T04:24:22.515Z,0.00
2022-11-19T04:25:22.511Z,0.00
2022-11-19T04:26:22.500Z,0.00
2022-11-19T04:27:22.466Z,0.00
2022-11-19T04:28:22.468Z,0.00
2022-11-19T04:29:22.459Z,0.00
2022-11-19T04:30:22.449Z,0.00
2022-11-19T04:31:22.436Z,0.00
2022-11-19T04:32:22.438Z,0.00
2022-11-19T04:33:22.442Z,0.00
2022-11-19T04:34:22.428Z,0.00
2022-11-19T04:35:22.398Z,0.00
2022-11-19T04:36:22.377Z,0.00
2022-11-19T04:37:22.367Z,0.00
2022-11-19T04:38:22.358Z,0.00
2022-11-19T04:39:22.657Z,0.00
2022-11-19T04:40:22.340Z,0.00
2022-11-19T04:41:22.320Z,0.00
2022-11-19T04:42:22.320Z,0.00
2022-11-19T04:43:22.300Z,0.00
2022-11-19T04:44:22.299Z,0.00
2022-11-19T04:45:22.307Z,0.00
2022-11-19T04:46:22.280Z,0.00
2022-11-19T04:47:22.257Z,0.00
2022-11-19T04:48:22.248Z,0.00
2022-11-19T04:49:22.328Z,0.00
2022-11-19T04:50:22.259Z,0.00
2022-11-19T04:51:22.210Z,0.00
2022-11-19T04:52:22.199Z,0.00
2022-11-19T04:53:22.205Z,0.00
2022-11-19T04:54:22.193Z,0.00
2022-11-19T04:55:22.183Z,0.00
2022-11-19T04:56:22.190Z,0.00
2022-11-19T04:57:22.140Z,0.00
2022-11-19T04:58:22.150Z,0.00
2022-11-19T04:59:22.382Z,0.00
2022-11-19T05:00:22.121Z,0.00
2022-11-19T05:01:22.191Z,0.00
2022-11-19T05:02:22.091Z,0.00
2022-11-19T05:03:22.078Z,0.00
2022-11-19T05:04:22.072Z,0.00
2022-11-19T05:05:22.070Z,0.00
2022-11-19T05:06:22.040Z,0.00
2022-11-19T05:07:22.088Z,0.00
2022-11-19T05:08:22.022Z,0.00
2022-11-19T05:09:22.293Z,0.00
2022-11-19T05:10:22.032Z,0.00
2022-11-19T05:11:22.006Z,0.00
2022-11-19T05:12:21.983Z,0.00
2022-11-19T05:13:21.961Z,0.00
2022-11-19T05:14:23.731Z,0.00
2022-11-19T05:15:22.956Z,0.00
2022-11-19T05:16:21.942Z,0.00
2022-11-19T05:17:21.923Z,0.00
2022-11-19T05:18:21.912Z,0.00
2022-11-19T05:19:22.162Z,0.00
2022-11-19T05:20:21.912Z,0.00
2022-11-19T05:21:21.882Z,0.00
2022-11-19T05:22:21.876Z,0.00
2022-11-19T05:23:21.862Z,0.00
2022-11-19T05:24:21.861Z,0.00
2022-11-19T05:25:21.875Z,0.00
2022-11-19T05:26:21.832Z,0.00
2022-11-19T05:27:21.814Z,0.00
2022-11-19T05:28:32.718Z,0.00
2022-11-19T05:29:22.794Z,0.00
2022-11-19T05:30:21.795Z,0.00
2022-11-19T05:31:21.793Z,0.00
2022-11-19T05:32:21.777Z,0.00
2022-11-19T05:33:21.781Z,0.00
2022-11-19T05:34:21.820Z,0.00
2022-11-19T05:35:21.752Z,0.00
2022-11-19T05:36:21.714Z,0.00
2022-11-19T05:37:21.733Z,0.00
2022-11-19T05:38:21.835Z,0.00
2022-11-19T05:39:22.497Z,0.00
2022-11-19T05:40:21.685Z,0.00
2022-11-19T05:41:21.687Z,0.00
2022-11-19T05:42:21.658Z,0.00
2022-11-19T05:43:21.655Z,0.00
2022-11-19T05:44:21.634Z,0.00
2022-11-19T05:45:21.665Z,0.00
2022-11-19T05:46:21.626Z,0.00
2022-11-19T05:47:21.623Z,0.00
2022-11-19T05:48:21.588Z,0.00
2022-11-19T05:49:21.839Z,0.00
2022-11-19T05:50:21.585Z,0.00
2022-11-19T05:51:21.569Z,0.00
2022-11-19T05:52:21.550Z,0.00
2022-11-19T05:53:21.556Z,0.00
2022-11-19T05:54:21.607Z,0.00
2022-11-19T05:55:21.515Z,0.00
2022-11-19T05:56:21.519Z,0.00
2022-11-19T05:57:21.497Z,0.00
2022-11-19T05:58:21.476Z,0.00
2022-11-19T05:59:22.158Z,0.00
2022-11-19T06:00:21.458Z,0.00
2022-11-19T06:01:21.467Z,0.00
2022-11-19T06:02:21.602Z,0.00
2022-11-19T06:03:21.455Z,0.00
2022-11-19T06:04:21.416Z,0.00
2022-11-19T06:05:21.441Z,0.00
2022-11-19T06:06:21.423Z,0.00
2022-11-19T06:07:21.457Z,0.00
2022-11-19T06:08:21.377Z,0.00
2022-11-19T06:09:21.806Z,0.00
2022-11-19T06:10:21.461Z,0.00
2022-11-19T06:11:21.366Z,0.00
2022-11-19T06:12:21.336Z,0.00
2022-11-19T06:13:21.321Z,0.00
2022-11-19T06:14:21.308Z,0.00
2022-11-19T06:15:21.297Z,0.00
2022-11-19T06:16:21.298Z,0.00
2022-11-19T06:17:21.281Z,0.00
2022-11-19T06:18:21.258Z,0.00
2022-11-19T06:19:21.592Z,0.00
2022-11-19T06:20:21.248Z,0.00
2022-11-19T06:21:21.249Z,0.00
2022-11-19T06:22:21.239Z,0.00
2022-11-19T06:23:21.220Z,0.00
2022-11-19T06:24:21.203Z,0.00
2022-11-19T06:25:21.211Z,0.00
2022-11-19T06:26:21.190Z,0.00
2022-11-19T06:27:21.169Z,0.00
2022-11-19T06:28:21.159Z,0.00
2022-11-19T06:29:21.659Z,0.00
2022-11-19T06:30:21.138Z,0.00
2022-11-19T06:31:21.139Z,0.00
2022-11-19T06:32:21.129Z,0.00
2022-11-19T06:33:21.108Z,0.00
2022-11-19T06:34:21.100Z,0.00
2022-11-19T06:35:21.079Z,0.00
2022-11-19T06:36:21.081Z,0.00
2022-11-19T06:37:21.090Z,0.00
2022-11-19T06:38:21.069Z,0.00
2022-11-19T06:39:21.405Z,0.00
2022-11-19T06:40:21.029Z,0.00
2022-11-19T06:41:21.030Z,0.00
2022-11-19T06:42:21.030Z,0.00
2022-11-19T06:43:21.010Z,0.00
2022-11-19T06:44:21.007Z,0.00
2022-11-19T06:45:20.974Z,0.00
2022-11-19T06:46:20.982Z,0.00
2022-11-19T06:47:20.956Z,0.00
2022-11-19T06:48:20.950Z,0.00
2022-11-19T06:49:20.962Z,0.00
2022-11-19T06:50:20.920Z,0.00
2022-11-19T06:51:20.920Z,0.00
2022-11-19T06:52:20.911Z,0.00
2022-11-19T06:53:20.901Z,0.00
2022-11-19T06:54:20.884Z,0.00
2022-11-19T06:55:20.873Z,5.62
2022-11-19T06:56:20.871Z,5.62
2022-11-19T06:57:20.849Z,5.62
2022-11-19T06:58:20.862Z,5.62
2022-11-19T06:59:21.298Z,5.62
2022-11-19T07:00:20.832Z,5.62
2022-11-19T07:01:20.887Z,5.62
2022-11-19T07:02:21.686Z,5.62
2022-11-19T07:03:20.783Z,5.62
2022-11-19T07:04:20.788Z,5.62
2022-11-19T07:05:20.782Z,11.25
2022-11-19T07:06:20.774Z,11.25
2022-11-19T07:07:20.788Z,11.25
2022-11-19T07:08:20.733Z,11.25
2022-11-19T07:09:21.020Z,11.25
2022-11-19T07:10:20.712Z,11.25
2022-11-19T07:11:20.734Z,11.25
2022-11-19T07:12:20.703Z,11.25
2022-11-19T07:13:20.685Z,16.88
2022-11-19T07:14:20.673Z,16.88
2022-11-19T07:15:20.653Z,16.88
2022-11-19T07:16:20.664Z,16.88
2022-11-19T07:17:20.660Z,16.88
2022-11-19T07:18:20.624Z,22.50
2022-11-19T07:19:20.954Z,22.50
2022-11-19T07:20:20.602Z,28.12
2022-11-19T07:21:20.611Z,28.12
2022-11-19T07:22:20.598Z,28.12
2022-11-19T07:23:20.575Z,28.12
2022-11-19T07:24:20.562Z,28.12
2022-11-19T07:25:20.573Z,28.12
2022-11-19T07:26:20.551Z,28.12
2022-11-19T07:27:20.554Z,28.12
2022-11-19T07:28:20.547Z,28.12
2022-11-19T07:29:20.725Z,28.12
2022-11-19T07:30:20.505Z,28.12
2022-11-19T07:31:20.485Z,28.12
2022-11-19T07:32:20.496Z,33.75
2022-11-19T07:33:20.457Z,33.75
2022-11-19T07:34:20.457Z,39.38
2022-11-19T07:35:20.444Z,39.38
2022-11-19T07:36:20.434Z,39.38
2022-11-19T07:37:20.425Z,39.38
2022-11-19T07:38:20.406Z,33.75
2022-11-19T07:39:20.525Z,33.75
2022-11-19T07:40:20.398Z,33.75
2022-11-19T07:41:20.397Z,33.75
2022-11-19T07:42:20.396Z,39.38
2022-11-19T07:43:20.357Z,39.38
2022-11-19T07:44:20.356Z,45.00
2022-11-19T07:45:20.339Z,45.00
2022-11-19T07:46:20.337Z,45.00
2022-11-19T07:47:20.326Z,45.00
2022-11-19T07:48:20.307Z,45.00
2022-11-19T07:49:20.545Z,45.00
2022-11-19T07:50:20.295Z,50.62
2022-11-19T07:51:20.269Z,61.88
2022-11-19T07:52:20.296Z,73.12
2022-11-19T07:53:20.245Z,78.75
2022-11-19T07:54:20.249Z,90.00
2022-11-19T07:55:20.233Z,95.62
2022-11-19T07:56:20.218Z,101.25
2022-11-19T07:57:20.237Z,101.25
2022-11-19T07:58:20.198Z,106.88
2022-11-19T07:59:20.432Z,118.12
2022-11-19T08:00:20.176Z,123.75
2022-11-19T08:01:20.287Z,135.00
2022-11-19T08:02:20.168Z,140.62
2022-11-19T08:03:20.147Z,140.62
2022-11-19T08:04:20.158Z,129.38
2022-11-19T08:05:20.118Z,123.75
2022-11-19T08:06:20.117Z,123.75
2022-11-19T08:07:20.198Z,123.75
2022-11-19T08:08:20.095Z,129.38
2022-11-19T08:09:20.357Z,129.38
2022-11-19T08:10:20.070Z,135.00
2022-11-19T08:11:20.059Z,135.00
2022-11-19T08:12:20.057Z,135.00
2022-11-19T08:13:20.038Z,135.00
2022-11-19T08:14:20.043Z,123.75
2022-11-19T08:15:20.008Z,118.12
2022-11-19T08:16:20.041Z,112.50
2022-11-19T08:17:20.021Z,112.50
2022-11-19T08:18:20.072Z,118.12
2022-11-19T08:19:20.282Z,118.12
2022-11-19T08:20:19.968Z,123.75
2022-11-19T08:21:19.949Z,129.38
2022-11-19T08:22:19.968Z,129.38
2022-11-19T08:23:19.930Z,129.38
2022-11-19T08:24:20.423Z,129.38
2022-11-19T08:25:19.909Z,129.38
2022-11-19T08:26:19.901Z,129.38
2022-11-19T08:27:19.894Z,123.75
2022-11-19T08:28:19.941Z,123.75
2022-11-19T08:29:19.861Z,118.12
2022-11-19T08:30:19.850Z,112.50
2022-11-19T08:31:19.839Z,106.88
2022-11-19T08:32:19.850Z,101.25
2022-11-19T08:33:19.818Z,101.25
2022-11-19T08:34:20.048Z,95.62
2022-11-19T08:35:19.801Z,95.62
2022-11-19T08:36:19.792Z,95.62
2022-11-19T08:37:19.791Z,101.25
2022-11-19T08:38:19.769Z,106.88
2022-11-19T08:39:19.749Z,106.88
2022-11-19T08:40:19.743Z,106.88
2022-11-19T08:41:19.730Z,106.88
2022-11-19T08:42:19.730Z,112.50
2022-11-19T08:43:19.711Z,112.50
2022-11-19T08:44:19.950Z,106.88
2022-11-19T08:45:21.067Z,106.88
2022-11-19T08:46:19.690Z,112.50
2022-11-19T08:47:19.681Z,118.12
2022-11-19T08:48:19.660Z,135.00
2022-11-19T08:49:19.688Z,151.88
2022-11-19T08:50:19.642Z,168.75
2022-11-19T08:51:19.621Z,185.62
2022-11-19T08:52:19.633Z,202.50
2022-11-19T08:53:19.844Z,213.75
2022-11-19T08:54:19.883Z,225.00
2022-11-19T08:55:19.581Z,225.00
2022-11-19T08:56:19.581Z,236.25
2022-11-19T08:57:19.562Z,247.50
2022-11-19T08:58:19.559Z,253.12
2022-11-19T08:59:19.855Z,258.75
2022-11-19T09:00:19.533Z,258.75
2022-11-19T09:01:19.637Z,258.75
2022-11-19T09:02:19.522Z,264.38
2022-11-19T09:03:19.494Z,275.62
2022-11-19T09:04:19.736Z,275.62
2022-11-19T09:05:19.480Z,270.00
2022-11-19T09:06:19.464Z,258.75
2022-11-19T09:07:19.490Z,253.12
2022-11-19T09:08:19.451Z,247.50
2022-11-19T09:09:19.595Z,247.50
2022-11-19T09:10:19.422Z,258.75
2022-11-19T09:11:19.634Z,270.00
2022-11-19T09:12:19.412Z,281.25
2022-11-19T09:13:19.391Z,292.50
2022-11-19T09:14:19.823Z,292.50
2022-11-19T09:15:19.364Z,286.88
2022-11-19T09:16:19.372Z,275.62
2022-11-19T09:17:19.355Z,270.00
2022-11-19T09:18:19.336Z,264.38
2022-11-19T09:19:19.454Z,258.75
2022-11-19T09:20:19.371Z,253.12
2022-11-19T09:21:19.296Z,236.25
2022-11-19T09:22:19.314Z,230.62
2022-11-19T09:23:19.276Z,225.00
2022-11-19T09:24:19.595Z,225.00
2022-11-19T09:25:19.256Z,225.00
2022-11-19T09:26:19.255Z,241.88
2022-11-19T09:27:19.235Z,230.62
2022-11-19T09:28:19.224Z,241.88
2022-11-19T09:29:19.214Z,236.25
2022-11-19T09:30:19.309Z,236.25
2022-11-19T09:31:19.209Z,225.00
2022-11-19T09:32:25.059Z,185.62
2022-11-19T09:33:20.172Z,185.62
2022-11-19T09:34:19.368Z,185.62
2022-11-19T09:35:19.146Z,168.75
2022-11-19T09:36:19.135Z,151.88
2022-11-19T09:37:19.151Z,146.25
2022-11-19T09:38:19.166Z,140.62
2022-11-19T09:39:19.095Z,129.38
2022-11-19T09:40:19.087Z,129.38
2022-11-19T09:41:19.075Z,135.00
2022-11-19T09:42:19.075Z,140.62
2022-11-19T09:43:19.069Z,146.25
2022-11-19T09:44:19.383Z,168.75
2022-11-19T09:45:19.026Z,191.25
2022-11-19T09:46:19.031Z,202.50
2022-11-19T09:47:19.018Z,213.75
2022-11-19T09:48:19.006Z,225.00
2022-11-19T09:49:18.995Z,236.25
2022-11-19T09:50:18.977Z,230.62
2022-11-19T09:51:18.967Z,230.62
2022-11-19T09:52:18.966Z,225.00
2022-11-19T09:53:18.958Z,236.25
2022-11-19T09:54:19.478Z,247.50
2022-11-19T09:55:18.934Z,258.75
2022-11-19T09:56:18.909Z,264.38
2022-11-19T09:57:18.897Z,264.38
2022-11-19T09:58:18.908Z,264.38
2022-11-19T09:59:18.879Z,258.75
2022-11-19T10:00:18.862Z,258.75
2022-11-19T10:01:18.858Z,253.12
2022-11-19T10:02:18.838Z,247.50
2022-11-19T10:03:18.891Z,241.88
2022-11-19T10:04:19.288Z,230.62
2022-11-19T10:05:18.900Z,213.75
2022-11-19T10:06:18.798Z,191.25
2022-11-19T10:07:18.847Z,180.00
2022-11-19T10:08:18.788Z,168.75
2022-11-19T10:09:18.768Z,168.75
2022-11-19T10:10:18.759Z,174.38
2022-11-19T10:11:18.749Z,185.62
2022-11-19T10:12:18.738Z,191.25
2022-11-19T10:13:18.739Z,196.88
2022-11-19T10:14:19.122Z,208.12
2022-11-19T10:15:18.691Z,202.50
2022-11-19T10:16:18.700Z,208.12
2022-11-19T10:17:18.676Z,208.12
2022-11-19T10:18:18.721Z,213.75
2022-11-19T10:19:18.696Z,219.38
2022-11-19T10:20:18.724Z,225.00
2022-11-19T10:21:18.629Z,230.62
2022-11-19T10:22:18.632Z,230.62
2022-11-19T10:23:18.684Z,225.00
2022-11-19T10:24:18.907Z,219.38
2022-11-19T10:25:18.593Z,213.75
2022-11-19T10:26:18.653Z,208.12
2022-11-19T10:27:18.562Z,202.50
2022-11-19T10:28:18.570Z,202.50
2022-11-19T10:29:18.864Z,202.50
2022-11-19T10:30:18.645Z,196.88
2022-11-19T10:31:18.520Z,196.88
2022-11-19T10:32:18.512Z,196.88
2022-11-19T10:33:18.503Z,202.50
2022-11-19T10:34:18.499Z,208.12
2022-11-19T10:35:18.481Z,219.38
2022-11-19T10:36:18.469Z,225.00
2022-11-19T10:37:18.459Z,225.00
2022-11-19T10:38:18.490Z,230.62
2022-11-19T10:39:18.819Z,230.62
2022-11-19T10:40:18.571Z,225.00
2022-11-19T10:41:18.414Z,219.38
2022-11-19T10:42:18.402Z,219.38
2022-11-19T10:43:23.182Z,213.75
2022-11-19T10:44:19.703Z,202.50
2022-11-19T10:45:18.364Z,196.88
2022-11-19T10:46:18.355Z,185.62
2022-11-19T10:47:18.335Z,174.38
2022-11-19T10:48:18.343Z,163.12
2022-11-19T10:49:18.701Z,157.50
2022-11-19T10:50:18.337Z,157.50
2022-11-19T10:51:18.295Z,157.50
2022-11-19T10:52:18.314Z,157.50
2022-11-19T10:53:18.293Z,157.50
2022-11-19T10:54:18.275Z,151.88
2022-11-19T10:55:18.254Z,146.25
2022-11-19T10:56:18.275Z,146.25
2022-11-19T10:57:18.234Z,151.88
2022-11-19T10:58:18.254Z,157.50
2022-11-19T10:59:18.527Z,168.75
2022-11-19T11:00:18.195Z,185.62
2022-11-19T11:01:18.298Z,208.12
2022-11-19T11:02:18.194Z,225.00
2022-11-19T11:03:18.174Z,236.25
2022-11-19T11:04:18.166Z,236.25
2022-11-19T11:05:18.155Z,230.62
2022-11-19T11:06:18.135Z,225.00
2022-11-19T11:07:18.200Z,219.38
2022-11-19T11:08:18.145Z,208.12
2022-11-19T11:09:18.353Z,202.50
2022-11-19T11:10:18.098Z,196.88
2022-11-19T11:11:18.076Z,196.88
2022-11-19T11:12:18.066Z,202.50
2022-11-19T11:13:18.087Z,213.75
2022-11-19T11:14:18.079Z,219.38
2022-11-19T11:15:18.026Z,230.62
2022-11-19T11:16:18.047Z,241.88
2022-11-19T11:17:18.015Z,253.12
2022-11-19T11:18:17.998Z,241.88
2022-11-19T11:19:18.291Z,241.88
2022-11-19T11:20:17.980Z,241.88
2022-11-19T11:21:17.977Z,236.25
2022-11-19T11:22:18.028Z,230.62
2022-11-19T11:23:17.947Z,236.25
2022-11-19T11:24:17.950Z,247.50
2022-11-19T11:25:17.918Z,258.75
2022-11-19T11:26:17.909Z,258.75
2022-11-19T11:27:17.899Z,270.00
2022-11-19T11:28:18.104Z,247.50
2022-11-19T11:29:18.043Z,230.62
2022-11-19T11:30:17.887Z,213.75
2022-11-19T11:31:17.867Z,213.75
2022-11-19T11:32:17.859Z,219.38
2022-11-19T11:33:17.840Z,225.00
2022-11-19T11:34:17.839Z,225.00
2022-11-19T11:35:17.809Z,225.00
2022-11-19T11:36:17.858Z,225.00
2022-11-19T11:37:17.790Z,225.00
2022-11-19T11:38:17.841Z,225.00
2022-11-19T11:39:18.096Z,225.00
2022-11-19T11:40:17.770Z,225.00
2022-11-19T11:42:03.674Z,225.00
2022-11-19T11:42:18.775Z,230.62
2022-11-19T11:43:17.722Z,230.62
2022-11-19T11:44:17.743Z,230.62
2022-11-19T11:45:17.752Z,225.00
2022-11-19T11:46:17.901Z,219.38
2022-11-19T11:47:17.681Z,213.75
2022-11-19T11:48:17.710Z,213.75
2022-11-19T11:49:17.674Z,213.75
2022-11-19T11:50:17.660Z,219.38
2022-11-19T11:51:17.628Z,219.38
2022-11-19T11:52:17.650Z,213.75
2022-11-19T11:53:17.633Z,208.12
2022-11-19T11:54:18.321Z,208.12
2022-11-19T11:55:17.615Z,219.38
2022-11-19T11:56:17.581Z,236.25
2022-11-19T11:57:17.562Z,247.50
2022-11-19T11:58:17.562Z,270.00
2022-11-19T11:59:18.001Z,303.75
2022-11-19T12:00:17.542Z,337.50
2022-11-19T12:01:17.522Z,365.62
2022-11-19T12:02:17.566Z,376.88
2022-11-19T12:03:17.491Z,376.88
2022-11-19T12:04:17.563Z,371.25
2022-11-19T12:05:17.591Z,360.00
2022-11-19T12:06:17.473Z,354.38
2022-11-19T12:07:17.557Z,348.75
2022-11-19T12:08:17.466Z,343.12
2022-11-19T12:09:17.843Z,331.88
2022-11-19T12:10:17.434Z,326.25
2022-11-19T12:11:17.414Z,315.00
2022-11-19T12:12:17.438Z,326.25
2022-11-19T12:13:17.392Z,337.50
2022-11-19T12:14:17.414Z,354.38
2022-11-19T12:15:17.470Z,365.62
2022-11-19T12:16:17.395Z,360.00
2022-11-19T12:17:17.345Z,348.75
2022-11-19T12:18:17.336Z,331.88
2022-11-19T12:19:17.685Z,326.25
2022-11-19T12:20:17.325Z,331.88
2022-11-19T12:21:17.303Z,348.75
2022-11-19T12:22:17.299Z,371.25
2022-11-19T12:23:17.284Z,371.25
2022-11-19T12:24:17.287Z,343.12
2022-11-19T12:25:17.273Z,320.62
2022-11-19T12:26:17.266Z,292.50
2022-11-19T12:27:17.245Z,281.25
2022-11-19T12:28:17.236Z,275.62
2022-11-19T12:29:17.739Z,270.00
2022-11-19T12:30:17.219Z,270.00
2022-11-19T12:31:17.205Z,258.75
2022-11-19T12:32:17.190Z,241.88
2022-11-19T12:33:17.165Z,236.25
2022-11-19T12:34:17.187Z,219.38
2022-11-19T12:35:17.149Z,208.12
2022-11-19T12:36:17.150Z,196.88
2022-11-19T12:37:17.127Z,185.62
2022-11-19T12:38:17.127Z,180.00
2022-11-19T12:39:17.409Z,185.62
2022-11-19T12:40:17.120Z,185.62
2022-11-19T12:41:17.092Z,180.00
2022-11-19T12:42:17.076Z,174.38
2022-11-19T12:43:17.066Z,174.38
2022-11-19T12:44:17.065Z,174.38
2022-11-19T12:45:17.037Z,168.75
2022-11-19T12:46:17.029Z,163.12
2022-11-19T12:47:17.020Z,157.50
2022-11-19T12:48:17.017Z,146.25
2022-11-19T12:49:17.262Z,135.00
2022-11-19T12:50:16.998Z,135.00
2022-11-19T12:51:16.969Z,129.38
2022-11-19T12:52:17.041Z,129.38
2022-11-19T12:53:16.950Z,129.38
2022-11-19T12:54:19.943Z,135.00
2022-11-19T12:55:17.931Z,135.00
2022-11-19T12:56:16.949Z,135.00
2022-11-19T12:57:16.909Z,129.38